Main page
Satellite images 15-day forecastsClimateMarine weather Cyclones Lightning AirportsFAQ Newsletter About
Weather : Europe Africa North America South America Asia Australia-Oceania Others
Languages Contact

Podgorica, Montenegro

latitude: 42-26N, longitude: 019-17E, elevation: 53 m


METAR: LYPG 180900Z 25002KT 9999 FEW040 BKN080 10/09 Q1018 NOSIG
TAF: LYPG 180500Z 1806/1906 16005KT 9999 SCT040 SCT080 TX15/1812Z TN06/1906Z TEMPO 1806/1808 2000 -RA BR

Time: 10:27 (09:27 UTC)

Current weather observation

The report was made 27 minutes ago, at 09:00 UTC
Wind 2 kt from the West/Southwest
Temperature 10°C
Humidity 93%
Pressure 1018 hPa
Visibility 10 km or more
Few clouds at a height of 4000 ft
Broken clouds at a height of 8000 ft

Change units

Forecast

The report was made 4 hours and 27 minutes ago, at 05:00 UTC
Forecast valid from 18 at 06 UTC to 19 at 06 UTC
Wind 5 kt from the South/Southeast
Visibility 10 km or more
Scattered clouds at a height of 4000 ft
Scattered clouds at a height of 8000 ft
Temporary
from 18 at 06 UTC to 18 at 08 UTC
Visibility: 2000 m
light rain and mist
The information on this site is subject to a disclaimer
Weather : Europe Africa North America South America Asia Australia-Oceania Others
Satellite images 15-day forecastsClimateMarine weather Cyclones Lightning AirportsFAQ Languages Contact Newsletter About